createdAt,value
2022-09-03T00:02:28.136Z,4.18
2022-09-03T00:05:11.838Z,5.22
2022-09-03T00:08:01.098Z,3.72
2022-09-03T00:10:29.814Z,2.75
2022-09-03T00:12:57.633Z,1.50
2022-09-03T00:15:24.199Z,2.00
2022-09-03T00:17:55.506Z,2.35
2022-09-03T00:20:39.706Z,3.53
2022-09-03T00:23:26.681Z,2.75
2022-09-03T00:26:00.580Z,3.50
2022-09-03T00:28:29.787Z,2.63
2022-09-03T00:31:07.503Z,1.52
2022-09-03T00:33:34.021Z,2.38
2022-09-03T00:36:03.180Z,8.52
2022-09-03T00:38:30.472Z,1.88
2022-09-03T00:41:06.762Z,3.45
2022-09-03T00:43:46.794Z,2.67
2022-09-03T00:46:19.989Z,2.80
2022-09-03T00:48:46.270Z,2.22
2022-09-03T00:51:13.613Z,1.88
2022-09-03T00:54:04.182Z,4.03
2022-09-03T00:56:43.496Z,3.22
2022-09-03T00:59:28.594Z,1.60
2022-09-03T01:02:14.395Z,2.33
2022-09-03T01:04:59.480Z,5.75
2022-09-03T01:07:38.700Z,2.80
2022-09-03T01:10:16.314Z,2.55
2022-09-03T01:12:55.681Z,4.45
2022-09-03T01:15:34.312Z,4.28
2022-09-03T01:18:00.567Z,1.50
2022-09-03T01:20:42.108Z,4.30
2022-09-03T01:23:35.798Z,2.05
2022-09-03T01:26:22.805Z,1.92
2022-09-03T01:29:10.871Z,2.75
2022-09-03T01:31:42.271Z,5.03
2022-09-03T01:34:12.625Z,3.10
2022-09-03T01:36:56.993Z,2.90
2022-09-03T01:39:32.406Z,3.38
2022-09-03T01:42:15.780Z,4.85
2022-09-03T01:44:50.972Z,2.40
2022-09-03T01:47:31.011Z,3.60
2022-09-03T01:50:02.791Z,6.72
2022-09-03T01:52:42.012Z,2.50
2022-09-03T01:55:15.233Z,2.35
2022-09-03T01:58:01.748Z,5.25
2022-09-03T02:00:31.574Z,2.90
2022-09-03T02:03:00.780Z,10.50
2022-09-03T02:05:27.610Z,1.65
2022-09-03T02:08:01.638Z,5.75
2022-09-03T02:10:48.228Z,3.85
2022-09-03T02:13:23.930Z,2.17
2022-09-03T02:15:52.692Z,4.10
2022-09-03T02:18:21.663Z,2.92
2022-09-03T02:20:48.810Z,2.33
2022-09-03T02:23:15.504Z,1.65
2022-09-03T02:25:47.649Z,5.93
2022-09-03T02:28:17.588Z,3.88
2022-09-03T02:30:44.545Z,5.47
2022-09-03T02:33:11.103Z,3.30
2022-09-03T02:35:37.417Z,1.70
2022-09-03T02:38:16.914Z,1.80
2022-09-03T02:40:43.281Z,1.58
2022-09-03T02:43:13.358Z,2.22
2022-09-03T02:45:43.390Z,2.30
2022-09-03T02:48:11.374Z,3.00
2022-09-03T02:50:41.586Z,2.03
2022-09-03T02:53:08.491Z,3.15
2022-09-03T02:55:34.776Z,2.38
2022-09-03T02:58:01.354Z,3.08
2022-09-03T03:00:28.616Z,3.90
2022-09-03T03:02:55.563Z,3.08
2022-09-03T03:05:26.333Z,5.65
2022-09-03T03:07:52.596Z,1.65
2022-09-03T03:10:18.887Z,4.10
2022-09-03T03:12:45.310Z,1.55
2022-09-03T03:15:11.617Z,3.67
2022-09-03T03:17:37.899Z,2.03
2022-09-03T03:20:04.256Z,3.13
2022-09-03T03:22:30.508Z,3.10
2022-09-03T03:24:57.648Z,13.45
2022-09-03T03:27:24.049Z,2.15
2022-09-03T03:29:50.686Z,2.70
2022-09-03T03:32:16.980Z,1.73
2022-09-03T03:34:43.226Z,7.70
2022-09-03T03:37:09.514Z,1.80
2022-09-03T03:39:35.829Z,3.72
2022-09-03T03:42:02.263Z,3.33
2022-09-03T03:44:29.598Z,2.30
2022-09-03T03:46:55.883Z,1.60
2022-09-03T03:49:22.159Z,2.63
2022-09-03T03:51:48.432Z,2.33
2022-09-03T03:54:17.551Z,2.95
2022-09-03T03:56:44.215Z,3.80
2022-09-03T03:59:13.248Z,1.80
2022-09-03T04:01:40.451Z,3.95
2022-09-03T04:04:06.840Z,6.13
2022-09-03T04:06:33.126Z,12.38
2022-09-03T04:08:59.407Z,13.32
2022-09-03T04:11:26.120Z,17.92
2022-09-03T04:13:52.544Z,26.10
2022-09-03T04:16:19.944Z,32.55
2022-09-03T04:18:47.166Z,40.58
2022-09-03T04:21:14.360Z,34.28
2022-09-03T04:23:44.495Z,37.65
2022-09-03T04:26:11.929Z,32.80
2022-09-03T04:28:38.630Z,19.25
2022-09-03T04:31:06.090Z,14.38
2022-09-03T04:33:34.208Z,11.25
2022-09-03T04:36:11.355Z,6.47
2022-09-03T04:38:38.502Z,8.45
2022-09-03T04:41:05.242Z,10.13
2022-09-03T04:43:31.653Z,5.20
2022-09-03T04:45:58.834Z,6.65
2022-09-03T04:48:25.664Z,2.85
2022-09-03T04:50:51.934Z,4.40
2022-09-03T04:53:18.236Z,5.65
2022-09-03T04:55:44.530Z,3.67
2022-09-03T04:58:10.796Z,2.92
2022-09-03T05:00:37.583Z,5.40
2022-09-03T05:03:05.089Z,14.38
2022-09-03T05:05:33.326Z,2.40
2022-09-03T05:08:02.770Z,3.47
2022-09-03T05:10:29.028Z,4.80
2022-09-03T05:12:59.059Z,6.78
2022-09-03T05:15:25.339Z,6.85
2022-09-03T05:17:55.711Z,3.78
2022-09-03T05:20:22.713Z,7.05
2022-09-03T05:22:48.972Z,5.53
2022-09-03T05:25:15.233Z,6.80
2022-09-03T05:27:41.504Z,3.10
2022-09-03T05:30:08.032Z,8.45
2022-09-03T05:32:34.720Z,1.98
2022-09-03T05:35:00.969Z,3.95
2022-09-03T05:37:27.592Z,3.65
2022-09-03T05:39:54.084Z,5.90
2022-09-03T05:42:21.903Z,7.28
2022-09-03T05:44:49.323Z,8.50
2022-09-03T05:47:16.469Z,4.53
2022-09-03T05:49:42.746Z,3.58
2022-09-03T05:52:09.936Z,5.60
2022-09-03T05:54:36.179Z,2.42
2022-09-03T05:57:02.486Z,2.78
2022-09-03T05:59:28.741Z,3.55
2022-09-03T06:01:59.441Z,4.07
2022-09-03T06:04:26.556Z,1.55
2022-09-03T06:06:52.982Z,1.77
2022-09-03T06:09:20.468Z,4.03
2022-09-03T06:11:47.345Z,7.55
2022-09-03T06:14:14.252Z,2.55
2022-09-03T06:16:42.026Z,3.35
2022-09-03T06:19:13.093Z,6.45
2022-09-03T06:21:43.244Z,1.63
2022-09-03T06:24:17.124Z,4.15
2022-09-03T06:26:43.561Z,3.17
2022-09-03T06:29:10.546Z,4.35
2022-09-03T06:31:37.065Z,1.77
2022-09-03T06:34:04.266Z,2.65
2022-09-03T06:36:30.817Z,3.15
2022-09-03T06:38:57.349Z,1.95
2022-09-03T06:41:25.220Z,2.85
2022-09-03T06:43:53.312Z,3.88
2022-09-03T06:46:23.950Z,2.75
2022-09-03T06:48:55.433Z,1.40
2022-09-03T06:51:26.169Z,2.10
2022-09-03T06:53:54.472Z,6.53
2022-09-03T06:56:27.113Z,1.40
2022-09-03T06:58:54.558Z,7.85
2022-09-03T07:01:21.969Z,1.75
2022-09-03T07:03:51.983Z,2.78
2022-09-03T07:06:19.087Z,6.43
2022-09-03T07:08:46.605Z,7.15
2022-09-03T07:11:14.463Z,7.25
2022-09-03T07:13:41.690Z,4.53
2022-09-03T07:16:09.098Z,4.78
2022-09-03T07:18:35.936Z,6.82
2022-09-03T07:21:03.651Z,4.45
2022-09-03T07:23:30.412Z,8.90
2022-09-03T07:25:58.114Z,6.35
2022-09-03T07:28:26.467Z,6.22
2022-09-03T07:30:53.099Z,9.60
2022-09-03T07:33:19.518Z,13.52
2022-09-03T07:35:46.198Z,5.00
2022-09-03T07:38:16.611Z,13.10
2022-09-03T07:40:43.803Z,30.55
2022-09-03T07:43:10.479Z,6.90
2022-09-03T07:45:37.393Z,6.00
2022-09-03T07:48:03.722Z,7.80
2022-09-03T07:50:32.793Z,7.20
2022-09-03T07:52:59.226Z,8.70
2022-09-03T07:55:25.503Z,3.35
2022-09-03T07:57:59.331Z,25.23
2022-09-03T08:00:26.105Z,37.85
2022-09-03T08:02:56.514Z,77.72
2022-09-03T08:05:22.811Z,86.05
2022-09-03T08:07:49.494Z,7.25
2022-09-03T08:10:16.418Z,66.28
2022-09-03T08:12:42.713Z,83.00
2022-09-03T08:15:09.068Z,36.42
2022-09-03T08:17:35.360Z,3.38
2022-09-03T08:20:03.426Z,14.85
2022-09-03T08:22:29.679Z,9.52
2022-09-03T08:24:55.927Z,5.13
2022-09-03T08:27:25.315Z,2.03
2022-09-03T08:29:51.590Z,9.68
2022-09-03T08:32:17.831Z,3.70
2022-09-03T08:34:44.068Z,5.65
2022-09-03T08:37:10.599Z,4.68
2022-09-03T08:39:36.946Z,4.60
2022-09-03T08:42:14.662Z,3.47
2022-09-03T08:44:54.024Z,2.90
2022-09-03T08:47:29.811Z,37.75
2022-09-03T08:49:56.075Z,32.75
2022-09-03T08:52:28.438Z,14.25
2022-09-03T08:54:58.145Z,2.17
2022-09-03T08:57:25.255Z,12.30
2022-09-03T08:59:53.644Z,8.32
2022-09-03T09:02:42.613Z,4.05
2022-09-03T09:05:14.994Z,8.23
2022-09-03T09:07:53.415Z,11.75
2022-09-03T09:10:26.456Z,3.70
2022-09-03T09:13:05.052Z,9.60
2022-09-03T09:15:50.799Z,5.10
2022-09-03T09:18:30.069Z,10.18
2022-09-03T09:21:07.753Z,18.15
2022-09-03T09:23:40.161Z,2.17
2022-09-03T09:26:12.328Z,11.52
2022-09-03T09:28:38.963Z,4.82
2022-09-03T09:31:07.703Z,3.67
2022-09-03T09:33:35.452Z,4.32
2022-09-03T09:36:03.012Z,7.88
2022-09-03T09:38:34.075Z,13.90
2022-09-03T09:41:09.700Z,11.43
2022-09-03T09:43:36.060Z,4.32
2022-09-03T09:46:08.347Z,9.20
2022-09-03T09:48:37.839Z,10.85
2022-09-03T09:51:11.167Z,3.90
2022-09-03T09:53:38.055Z,2.00
2022-09-03T09:56:04.383Z,15.43
2022-09-03T09:58:31.899Z,5.93
2022-09-03T10:01:04.688Z,10.18
2022-09-03T10:03:37.211Z,4.57
2022-09-03T10:06:25.411Z,8.88
2022-09-03T10:08:52.490Z,6.80
2022-09-03T10:11:19.961Z,19.80
2022-09-03T10:13:48.463Z,17.98
2022-09-03T10:16:27.566Z,5.05
2022-09-03T10:18:58.244Z,22.15
2022-09-03T10:21:35.218Z,11.82
2022-09-03T10:24:19.573Z,77.63
2022-09-03T10:26:46.359Z,13.18
2022-09-03T10:29:17.075Z,3.15
2022-09-03T10:31:43.304Z,12.77
2022-09-03T10:34:13.476Z,5.60
2022-09-03T10:39:12.501Z,4.10
2022-09-03T10:41:40.519Z,4.93
2022-09-03T10:44:35.257Z,8.27
2022-09-03T10:47:16.982Z,10.00
2022-09-03T10:49:46.054Z,6.90
2022-09-03T10:52:19.745Z,6.93
2022-09-03T10:55:02.410Z,7.28
2022-09-03T10:57:29.448Z,2.53
2022-09-03T11:00:10.205Z,10.13
2022-09-03T11:02:42.582Z,10.85
2022-09-03T11:05:21.768Z,7.05
2022-09-03T11:07:50.881Z,7.10
2022-09-03T11:10:31.078Z,6.15
2022-09-03T11:12:57.641Z,9.10
2022-09-03T11:15:27.919Z,4.43
2022-09-03T11:18:08.241Z,6.68
2022-09-03T11:20:35.186Z,6.13
2022-09-03T11:23:03.163Z,1.23
2022-09-03T11:25:35.684Z,4.28
2022-09-03T11:28:11.655Z,1.33
2022-09-03T11:30:49.623Z,10.15
2022-09-03T11:33:19.401Z,2.58
2022-09-03T11:35:45.814Z,4.70
2022-09-03T11:38:14.972Z,9.48
2022-09-03T11:40:57.221Z,1.58
2022-09-03T11:43:23.442Z,5.75
2022-09-03T11:45:50.341Z,5.82
2022-09-03T11:48:18.000Z,7.15
2022-09-03T11:50:51.920Z,2.97
2022-09-03T11:53:18.828Z,5.47
2022-09-03T11:56:04.209Z,7.43
2022-09-03T11:58:34.715Z,6.85
2022-09-03T12:01:02.003Z,4.53
2022-09-03T12:03:30.060Z,4.10
2022-09-03T12:06:05.163Z,5.88
2022-09-03T12:08:41.332Z,4.80
2022-09-03T12:11:09.541Z,2.58
2022-09-03T12:13:54.359Z,9.48
2022-09-03T12:16:29.575Z,4.93
2022-09-03T12:19:00.807Z,2.50
2022-09-03T12:21:27.122Z,7.55
2022-09-03T12:23:58.228Z,2.58
2022-09-03T12:26:26.119Z,8.43
2022-09-03T12:28:54.596Z,16.73
2022-09-03T12:31:25.240Z,11.45
2022-09-03T12:33:58.973Z,4.28
2022-09-03T12:36:26.204Z,4.15
2022-09-03T12:39:11.968Z,1.90
2022-09-03T12:41:38.996Z,5.65
2022-09-03T12:44:05.632Z,5.65
2022-09-03T12:46:33.991Z,3.10
2022-09-03T12:51:56.886Z,2.97
2022-09-03T12:54:24.679Z,4.88
2022-09-03T12:56:55.466Z,6.90
2022-09-03T12:59:22.592Z,2.10
2022-09-03T13:01:50.542Z,5.18
2022-09-03T13:04:24.656Z,7.10
2022-09-03T13:06:54.126Z,3.67
2022-09-03T13:09:21.704Z,5.18
2022-09-03T13:11:49.151Z,11.05
2022-09-03T13:14:17.503Z,4.95
2022-09-03T13:16:43.795Z,4.20
2022-09-03T13:19:10.163Z,4.22
2022-09-03T13:21:42.091Z,20.77
2022-09-03T13:24:27.385Z,15.48
2022-09-03T13:27:01.652Z,8.23
2022-09-03T13:29:46.368Z,4.85
2022-09-03T13:32:27.158Z,5.18
2022-09-03T13:34:56.941Z,2.50
2022-09-03T13:37:27.462Z,2.72
2022-09-03T13:39:59.865Z,7.32
2022-09-03T13:42:35.408Z,3.90
2022-09-03T13:45:06.481Z,3.90
2022-09-03T13:48:13.985Z,3.03
2022-09-03T13:50:44.927Z,2.75
2022-09-03T13:53:29.155Z,8.18
2022-09-03T13:55:56.938Z,1.50
2022-09-03T13:58:27.705Z,4.32
2022-09-03T14:01:12.184Z,9.10
2022-09-03T14:03:39.115Z,3.00
2022-09-03T14:06:09.210Z,2.53
2022-09-03T14:11:23.420Z,4.63
2022-09-03T14:14:05.036Z,2.83
2022-09-03T14:16:38.089Z,6.05
2022-09-03T14:19:07.510Z,5.97
2022-09-03T14:21:44.368Z,3.95
2022-09-03T14:24:14.177Z,3.30
2022-09-03T14:26:49.207Z,1.60
2022-09-03T14:29:16.869Z,3.10
2022-09-03T14:31:58.587Z,5.40
2022-09-03T14:34:43.383Z,3.05
2022-09-03T14:37:28.519Z,9.63
2022-09-03T14:39:54.843Z,1.55
2022-09-03T14:42:39.719Z,4.22
2022-09-03T14:45:14.910Z,4.13
2022-09-03T14:47:44.124Z,3.38
2022-09-03T14:50:19.239Z,5.17
2022-09-03T14:52:52.900Z,1.42
2022-09-03T14:55:19.150Z,1.17
2022-09-03T14:57:53.395Z,1.40
2022-09-03T15:00:33.171Z,3.75
2022-09-03T15:02:59.450Z,2.25
2022-09-03T15:05:44.267Z,1.55
2022-09-03T15:08:24.807Z,4.03
2022-09-03T15:11:15.552Z,4.57
2022-09-03T15:13:50.204Z,3.85
2022-09-03T15:16:35.230Z,3.45
2022-09-03T15:19:11.487Z,1.95
2022-09-03T15:22:01.363Z,6.32
2022-09-03T15:24:34.766Z,1.65
2022-09-03T15:27:20.621Z,9.70
2022-09-03T15:29:51.412Z,7.50
2022-09-03T15:32:41.151Z,1.80
2022-09-03T15:35:07.452Z,5.40
2022-09-03T15:37:36.776Z,1.60
2022-09-03T15:40:29.451Z,2.77
2022-09-03T15:43:00.558Z,4.70
2022-09-03T15:45:35.568Z,6.65
2022-09-03T15:48:19.025Z,2.20
2022-09-03T15:50:48.326Z,1.98
2022-09-03T15:53:34.092Z,3.93
2022-09-03T15:56:18.452Z,2.38
2022-09-03T15:59:02.772Z,1.95
2022-09-03T16:01:34.417Z,2.95
2022-09-03T16:04:17.097Z,1.58
2022-09-03T16:06:59.671Z,2.95
2022-09-03T16:09:25.974Z,6.00
2022-09-03T16:11:56.608Z,6.88
2022-09-03T16:14:38.366Z,1.98
2022-09-03T16:17:23.639Z,2.40
2022-09-03T16:20:13.162Z,1.90
2022-09-03T16:22:57.831Z,2.25
2022-09-03T16:25:29.116Z,1.50
2022-09-03T16:28:10.188Z,2.17
2022-09-03T16:30:39.093Z,5.43
2022-09-03T16:33:14.456Z,4.40
2022-09-03T16:35:52.492Z,8.25
2022-09-03T16:38:25.736Z,3.22
2022-09-03T16:40:57.491Z,3.33
2022-09-03T16:43:40.959Z,3.70
2022-09-03T16:46:32.918Z,5.45
2022-09-03T16:49:08.049Z,2.88
2022-09-03T16:51:53.215Z,3.10
2022-09-03T16:54:27.049Z,2.13
2022-09-03T16:56:54.013Z,4.55
2022-09-03T16:59:29.578Z,4.93
2022-09-03T17:02:18.240Z,2.72
2022-09-03T17:05:00.619Z,4.28
2022-09-03T17:07:50.238Z,2.75
2022-09-03T17:10:23.137Z,2.65
2022-09-03T17:12:52.225Z,6.38
2022-09-03T17:15:18.507Z,2.08
2022-09-03T17:17:56.055Z,4.07
2022-09-03T17:20:25.141Z,8.43
2022-09-03T17:22:51.469Z,4.13
2022-09-03T17:25:28.899Z,3.15
2022-09-03T17:27:55.165Z,7.38
2022-09-03T17:30:23.142Z,6.03
2022-09-03T17:33:04.258Z,3.50
2022-09-03T17:35:49.237Z,5.07
2022-09-03T17:38:39.537Z,7.25
2022-09-03T17:43:41.145Z,5.30
2022-09-03T17:46:19.019Z,5.07
2022-09-03T17:48:51.614Z,4.65
2022-09-03T17:51:41.071Z,4.13
2022-09-03T17:54:16.633Z,2.80
2022-09-03T17:56:43.605Z,10.88
2022-09-03T17:59:15.483Z,4.80
2022-09-03T18:01:51.243Z,3.58
2022-09-03T18:04:31.283Z,4.07
2022-09-03T18:07:07.104Z,4.50
2022-09-03T18:09:53.668Z,2.72
2022-09-03T18:12:22.917Z,4.82
2022-09-03T18:14:51.896Z,2.35
2022-09-03T18:17:25.104Z,7.97
2022-09-03T18:20:12.537Z,2.58
2022-09-03T18:23:07.252Z,5.47
2022-09-03T18:25:53.574Z,4.45
2022-09-03T18:28:42.944Z,5.85
2022-09-03T18:31:32.042Z,3.10
2022-09-03T18:34:17.018Z,18.23
2022-09-03T18:37:01.818Z,5.97
2022-09-03T18:39:47.060Z,3.72
2022-09-03T18:42:44.406Z,4.82
2022-09-03T18:49:05.116Z,5.68
2022-09-03T18:52:09.721Z,8.60
2022-09-03T18:55:08.890Z,4.35
2022-09-03T18:58:03.218Z,7.90
2022-09-03T19:00:49.125Z,9.82
2022-09-03T19:03:41.495Z,9.18
2022-09-03T19:06:35.098Z,9.70
2022-09-03T19:09:26.240Z,8.20
2022-09-03T19:12:11.164Z,7.05
2022-09-03T19:14:55.849Z,8.30
2022-09-03T19:17:47.029Z,11.15
2022-09-03T19:20:47.087Z,9.43
2022-09-03T19:23:32.325Z,5.95
2022-09-03T19:26:22.571Z,5.53
2022-09-03T19:29:10.451Z,10.77
2022-09-03T19:32:01.471Z,10.63
2022-09-03T19:34:53.282Z,9.38
2022-09-03T19:37:55.683Z,11.45
2022-09-03T19:40:40.956Z,9.13
2022-09-03T19:43:44.900Z,11.35
2022-09-03T19:46:48.851Z,11.38
2022-09-03T19:49:41.716Z,11.00
2022-09-03T19:52:48.529Z,8.98
2022-09-03T19:55:38.373Z,13.10
2022-09-03T19:58:41.958Z,19.63
2022-09-03T20:01:28.237Z,18.85
2022-09-03T20:04:14.322Z,17.15
2022-09-03T20:06:59.075Z,16.17
2022-09-03T20:09:46.803Z,7.75
2022-09-03T20:12:13.610Z,14.13
2022-09-03T20:14:39.863Z,11.40
2022-09-03T20:17:14.107Z,12.52
2022-09-03T20:19:40.404Z,8.10
2022-09-03T20:22:16.447Z,11.80
2022-09-03T20:24:46.074Z,11.60
2022-09-03T20:27:22.283Z,14.35
2022-09-03T20:30:06.807Z,15.13
2022-09-03T20:32:39.345Z,11.25
2022-09-03T20:35:05.607Z,14.32
2022-09-03T20:37:41.085Z,17.05
2022-09-03T20:40:10.190Z,21.75
2022-09-03T20:42:51.639Z,12.10
2022-09-03T20:45:20.471Z,26.17
2022-09-03T20:47:46.704Z,16.20
2022-09-03T20:50:40.087Z,15.05
2022-09-03T20:53:15.407Z,10.48
2022-09-03T20:55:42.616Z,14.18
2022-09-03T20:58:27.851Z,15.18
2022-09-03T21:01:08.285Z,14.10
2022-09-03T21:06:12.719Z,17.98
2022-09-03T21:08:46.152Z,13.02
2022-09-03T21:11:18.806Z,21.23
2022-09-03T21:13:50.191Z,19.88
2022-09-03T21:16:23.914Z,22.50
2022-09-03T21:18:56.901Z,24.70
2022-09-03T21:21:47.293Z,18.65
2022-09-03T21:24:17.105Z,19.80
2022-09-03T21:26:46.160Z,21.38
2022-09-03T21:29:22.336Z,27.08
2022-09-03T21:31:54.439Z,16.15
2022-09-03T21:34:25.325Z,17.67
2022-09-03T21:36:51.594Z,17.90
2022-09-03T21:39:24.239Z,16.65
2022-09-03T21:41:56.856Z,16.77
2022-09-03T21:44:42.471Z,17.80
2022-09-03T21:47:13.619Z,26.42
2022-09-03T21:49:42.206Z,18.30
2022-09-03T21:52:14.747Z,12.57
2022-09-03T21:54:41.061Z,16.85
2022-09-03T21:57:22.209Z,17.75
2022-09-03T22:00:08.658Z,15.98
2022-09-03T22:02:36.321Z,21.33
2022-09-03T22:05:03.848Z,15.15
2022-09-03T22:07:36.086Z,17.63
2022-09-03T22:10:21.207Z,16.40
2022-09-03T22:13:22.935Z,20.30
2022-09-03T22:15:51.860Z,21.70
2022-09-03T22:18:28.768Z,12.85
2022-09-03T22:21:11.360Z,18.38
2022-09-03T22:23:55.071Z,17.67
2022-09-03T22:26:24.948Z,15.07
2022-09-03T22:28:51.562Z,17.85
2022-09-03T22:31:27.216Z,17.90
2022-09-03T22:34:12.105Z,16.10
2022-09-03T22:36:47.073Z,21.05
2022-09-03T22:39:33.932Z,22.77
2022-09-03T22:42:02.912Z,12.68
2022-09-03T22:44:33.971Z,23.58
2022-09-03T22:47:12.185Z,19.70
2022-09-03T22:49:45.056Z,28.60
2022-09-03T22:52:29.819Z,19.50
2022-09-03T22:55:14.786Z,17.40
2022-09-03T22:57:45.463Z,19.38
2022-09-03T23:00:11.946Z,18.70
2022-09-03T23:02:39.039Z,14.70
2022-09-03T23:05:06.171Z,21.83
2022-09-03T23:07:41.595Z,13.82
2022-09-03T23:10:13.428Z,16.02
2022-09-03T23:13:18.054Z,17.77
2022-09-03T23:15:45.555Z,13.75
2022-09-03T23:18:17.592Z,14.10
2022-09-03T23:20:50.482Z,17.75
2022-09-03T23:23:25.568Z,17.50
2022-09-03T23:25:55.050Z,19.30
2022-09-03T23:28:29.703Z,20.52
2022-09-03T23:31:03.493Z,18.90
2022-09-03T23:33:29.761Z,15.95
2022-09-03T23:35:56.009Z,20.77
2022-09-03T23:38:34.164Z,22.27
2022-09-03T23:41:04.056Z,13.63
2022-09-03T23:43:47.173Z,19.80
2022-09-03T23:46:13.456Z,23.80
2022-09-03T23:48:42.877Z,15.52
2022-09-03T23:51:12.120Z,13.63
2022-09-03T23:53:50.590Z,16.40
2022-09-03T23:56:30.501Z,15.93
2022-09-03T23:59:11.783Z,17.90
